Airfield :
LOGIN :

Register | Disclaimer

   EN    FR    IT 

 










Legend :    VFR   Marginal VFR   IFR   Intensive IFR   Very Intensive IFR
Visi :
Ceiling :
>= 8 km
>= 3000ft
5 to 8 km
1000 to 3000 ft
1500m to 5 km
500 to 1000 ft
800 to 1500m
200 to 500 ft
< 800m
< 200 ft
Symbols :   Thunderstorms  Fog  Heavy snow  Heavy precipitations  Wind > 20 kt
SIGMETs :     Misc.  Thunderstorms  Icing  Turbulence  Mountain Waves  Volcanic Ashes







- Airport Elevation : 2595 ft
- IATA code : SLM


LESA - Salamanca Matacan

CURRENT METAR :
  • 221700Z 29014KT 260V320 9999 BKN011 OVC017 06/04 Q1014

EXPIRED METARs :
  • 221630Z 28015KT 9999 BKN010 BKN015 06/04 Q1014
  • 221600Z 28017KT 9999 BKN009 06/04 Q1015
  • 221530Z 28015KT 9999 BKN008 06/04 Q1015
  • 221500Z 28015KT 9999 BKN008 05/04 Q1015
  • 221430Z 28014KT 8000 BKN008 05/04 Q1016

TAF TAF LESA
Valid from the 22 at 12:00 until the 23 at 12:00 UTC


221100Z 2212/2312 28015KT 9999 BKN015 BKN025 BKN040 TX06/2215Z TN01/2300Z
TEMPO 2212/2218 3000 DZRA BKN012
TEMPO 2215/2312 SCT009 SCT012
No reported NOTAMs for that airfield.



MET'MAP, your aeronautical weather chart ! - Copyright ORBIFLY December 2007 - Disclaimer

ORBIFLY MET'MAP TEAM :

Programming & Development : Alexandra Zaïnal
Concept & Development : Baudouin d'Aumeries
Co-Development & Prog : Marc-Olivier Méhu
Technical & hardware support : Manuel Goepfert

Contact : metmap@orbifly.com




SOURCES & CREDITS :

   NOAA